createdAt,value
2023-01-29T00:02:22.392Z,102222.44
2023-01-29T00:04:51.063Z,102220.59
2023-01-29T00:07:18.301Z,102218.06
2023-01-29T00:09:45.523Z,102214.03
2023-01-29T00:12:12.861Z,102215.94
2023-01-29T00:14:40.124Z,102209.53
2023-01-29T00:17:07.392Z,102201.75
2023-01-29T00:19:35.998Z,102197.16
2023-01-29T00:22:04.674Z,102195.53
2023-01-29T00:24:31.958Z,102186.91
2023-01-29T00:26:59.301Z,102181.78
2023-01-29T00:29:26.575Z,102171.31
2023-01-29T00:31:54.027Z,102168.81
2023-01-29T00:34:21.323Z,102161.59
2023-01-29T00:36:49.102Z,102154.53
2023-01-29T00:39:17.710Z,102146.63
2023-01-29T00:41:45.951Z,102124.06
2023-01-29T00:44:13.396Z,102129.13
2023-01-29T00:46:41.050Z,102123.16
2023-01-29T00:49:09.179Z,102121.13
2023-01-29T00:51:38.043Z,102122.47
2023-01-29T00:54:06.132Z,102130.38
2023-01-29T00:56:36.963Z,102134.78
2023-01-29T00:59:04.555Z,102142.34
2023-01-29T01:01:32.291Z,102149.28
2023-01-29T01:03:59.623Z,102149.72
2023-01-29T01:06:26.863Z,102143.78
2023-01-29T01:08:54.187Z,102145.38
2023-01-29T01:11:21.906Z,102147.44
2023-01-29T01:13:50.470Z,102140.59
2023-01-29T01:16:20.055Z,102148.56
2023-01-29T01:18:47.468Z,102141.31
2023-01-29T01:21:14.695Z,102144.78
2023-01-29T01:23:42.969Z,102143.88
2023-01-29T01:26:10.506Z,102132.88
2023-01-29T01:28:37.835Z,102137.56
2023-01-29T01:31:10.740Z,102128.09
2023-01-29T01:33:38.522Z,102128.97
2023-01-29T01:36:07.259Z,102121.88
2023-01-29T01:38:34.755Z,102113.34
2023-01-29T01:41:02.130Z,102104.63
2023-01-29T01:43:46.248Z,102104.47
2023-01-29T01:46:14.932Z,102103.75
2023-01-29T01:48:43.860Z,102104.63
2023-01-29T01:51:11.252Z,102099.13
2023-01-29T01:53:43.315Z,102107.31
2023-01-29T01:56:16.151Z,102099.84
2023-01-29T01:58:47.648Z,102108.28
2023-01-29T02:01:17.771Z,102109.44
2023-01-29T02:03:50.489Z,102108.66
2023-01-29T02:06:17.971Z,102121.25
2023-01-29T02:08:53.168Z,102113.34
2023-01-29T02:11:20.712Z,102102.34
2023-01-29T02:13:48.006Z,102104.09
2023-01-29T02:16:16.726Z,102089.19
2023-01-29T02:18:44.018Z,102099.22
2023-01-29T02:21:41.550Z,102096.75
2023-01-29T02:24:45.616Z,102096.84
2023-01-29T02:27:15.605Z,102089.13
2023-01-29T02:29:55.281Z,102093.16
2023-01-29T02:32:30.488Z,102080.50
2023-01-29T02:35:10.098Z,102082.16
2023-01-29T02:37:45.473Z,102076.56
2023-01-29T02:40:21.143Z,102072.84
2023-01-29T02:42:53.058Z,102075.00
2023-01-29T02:45:31.793Z,102072.03
2023-01-29T02:48:01.375Z,102060.22
2023-01-29T02:50:34.615Z,102055.88
2023-01-29T02:53:08.064Z,102053.88
2023-01-29T02:55:41.597Z,102041.84
2023-01-29T02:58:15.018Z,102026.41
2023-01-29T03:00:46.792Z,102021.78
2023-01-29T03:03:18.241Z,102014.75
2023-01-29T03:06:02.752Z,102014.88
2023-01-29T03:08:33.810Z,102007.31
2023-01-29T03:11:04.005Z,102005.00
2023-01-29T03:13:37.577Z,102004.97
2023-01-29T03:16:13.955Z,102008.00
2023-01-29T03:18:50.021Z,102013.78
2023-01-29T03:21:22.711Z,102005.78
2023-01-29T03:23:51.674Z,102001.00
2023-01-29T03:26:22.802Z,102012.00
2023-01-29T03:28:51.956Z,102002.69
2023-01-29T03:31:21.426Z,102008.81
2023-01-29T03:34:01.068Z,102007.16
2023-01-29T03:36:34.797Z,101999.22
2023-01-29T03:39:02.161Z,102006.78
2023-01-29T03:41:34.564Z,102004.03
2023-01-29T03:44:12.938Z,102006.44
2023-01-29T03:46:48.790Z,102005.63
2023-01-29T03:49:24.267Z,101998.53
2023-01-29T03:51:58.856Z,102012.72
2023-01-29T03:54:32.795Z,102001.00
2023-01-29T03:57:06.560Z,102013.25
2023-01-29T03:59:41.034Z,102008.09
2023-01-29T04:02:35.103Z,102006.44
2023-01-29T04:05:14.107Z,102002.50
2023-01-29T04:07:56.806Z,102002.97
2023-01-29T04:10:27.356Z,102000.47
2023-01-29T04:12:58.895Z,101996.47
2023-01-29T04:15:30.592Z,102004.31
2023-01-29T04:17:59.821Z,102005.81
2023-01-29T04:20:51.009Z,102007.75
2023-01-29T04:23:22.868Z,102010.94
2023-01-29T04:26:00.191Z,102013.34
2023-01-29T04:28:34.509Z,102010.06
2023-01-29T04:31:07.530Z,102020.91
2023-01-29T04:33:44.505Z,102019.47
2023-01-29T04:36:25.563Z,102026.50
2023-01-29T04:39:05.144Z,102031.09
2023-01-29T04:41:37.175Z,102025.31
2023-01-29T04:44:15.512Z,102024.53
2023-01-29T04:46:49.410Z,102026.03
2023-01-29T04:49:29.807Z,102042.53
2023-01-29T04:52:05.981Z,102045.66
2023-01-29T04:54:44.890Z,102044.38
2023-01-29T04:57:19.629Z,102033.47
2023-01-29T04:59:52.289Z,102039.16
2023-01-29T05:02:21.012Z,102051.75
2023-01-29T05:04:50.486Z,102062.25
2023-01-29T05:07:19.301Z,102071.63
2023-01-29T05:09:48.437Z,102063.00
2023-01-29T05:12:17.702Z,102054.69
2023-01-29T05:14:47.280Z,102055.56
2023-01-29T05:17:18.332Z,102035.22
2023-01-29T05:19:46.312Z,102032.19
2023-01-29T05:22:18.106Z,102022.81
2023-01-29T05:24:45.477Z,102014.09
2023-01-29T05:27:17.770Z,102015.16
2023-01-29T05:29:47.123Z,102032.81
2023-01-29T05:32:15.226Z,102022.25
2023-01-29T05:34:42.542Z,102021.25
2023-01-29T05:37:10.313Z,102009.00
2023-01-29T05:39:39.061Z,102007.31
2023-01-29T05:42:06.337Z,102020.09
2023-01-29T05:44:33.851Z,102019.38
2023-01-29T05:47:01.029Z,102009.97
2023-01-29T05:49:28.516Z,101991.84
2023-01-29T05:51:55.855Z,102000.41
2023-01-29T05:54:23.168Z,101990.19
2023-01-29T05:56:51.752Z,102016.75
2023-01-29T05:59:19.131Z,102019.94
2023-01-29T06:01:46.559Z,102035.66
2023-01-29T06:04:13.896Z,102039.03
2023-01-29T06:06:41.215Z,102059.72
2023-01-29T06:09:10.279Z,102066.31
2023-01-29T06:11:37.571Z,102085.13
2023-01-29T06:14:06.977Z,102089.75
2023-01-29T06:16:34.314Z,102081.91
2023-01-29T06:19:01.594Z,102070.03
2023-01-29T06:21:28.915Z,102060.59
2023-01-29T06:23:56.388Z,102059.97
2023-01-29T06:26:23.713Z,102048.72
2023-01-29T06:28:51.522Z,102055.09
2023-01-29T06:31:36.330Z,102057.59
2023-01-29T06:34:04.968Z,102046.75
2023-01-29T06:36:32.187Z,102033.19
2023-01-29T06:38:59.640Z,102012.13
2023-01-29T06:41:26.887Z,102003.50
2023-01-29T06:43:54.325Z,101990.97
2023-01-29T06:46:22.951Z,101997.19
2023-01-29T06:48:50.239Z,102000.56
2023-01-29T06:51:17.552Z,101988.81
2023-01-29T06:53:46.414Z,101969.84
2023-01-29T06:56:14.072Z,101964.31
2023-01-29T06:58:41.350Z,101949.44
2023-01-29T07:01:10.612Z,101941.50
2023-01-29T07:03:39.843Z,101935.91
2023-01-29T07:06:07.716Z,101928.41
2023-01-29T07:08:36.360Z,101923.41
2023-01-29T07:11:05.577Z,101919.56
2023-01-29T07:13:33.461Z,101906.16
2023-01-29T07:16:01.599Z,101892.31
2023-01-29T07:18:29.393Z,101899.38
2023-01-29T07:20:58.240Z,101891.19
2023-01-29T07:23:25.764Z,101885.75
2023-01-29T07:25:53.004Z,101876.31
2023-01-29T07:28:20.444Z,101859.44
2023-01-29T07:30:47.863Z,101865.44
2023-01-29T07:33:15.259Z,101855.25
2023-01-29T07:35:43.530Z,101848.06
2023-01-29T07:38:12.229Z,101841.91
2023-01-29T07:40:39.854Z,101838.72
2023-01-29T07:43:07.766Z,101827.72
2023-01-29T07:45:36.392Z,101826.16
2023-01-29T07:48:04.770Z,101815.97
2023-01-29T07:50:33.469Z,101794.00
2023-01-29T07:53:01.362Z,101797.13
2023-01-29T07:55:30.430Z,101794.56
2023-01-29T07:57:58.603Z,101801.53
2023-01-29T08:00:26.885Z,101788.69
2023-01-29T08:02:54.441Z,101782.44
2023-01-29T08:05:21.642Z,101786.38
2023-01-29T08:08:05.712Z,101782.56
2023-01-29T08:10:36.150Z,101774.31
2023-01-29T08:13:04.948Z,101774.19
2023-01-29T08:15:33.204Z,101764.88
2023-01-29T08:18:01.647Z,101752.06
2023-01-29T08:20:29.103Z,101759.06
2023-01-29T08:23:00.135Z,101735.66
2023-01-29T08:25:28.214Z,101737.81
2023-01-29T08:27:58.128Z,101721.09
2023-01-29T08:30:25.887Z,101720.00
2023-01-29T08:32:53.146Z,101715.56
2023-01-29T08:35:21.131Z,101724.97
2023-01-29T08:37:55.570Z,101717.97
2023-01-29T08:40:23.044Z,101738.84
2023-01-29T08:42:50.251Z,101738.00
2023-01-29T08:45:18.885Z,101735.34
2023-01-29T08:47:47.365Z,101735.78
2023-01-29T08:50:15.095Z,101729.50
2023-01-29T08:52:43.279Z,101723.22
2023-01-29T08:55:10.798Z,101718.44
2023-01-29T08:57:38.621Z,101718.16
2023-01-29T09:00:08.116Z,101706.75
2023-01-29T09:02:37.029Z,101704.28
2023-01-29T09:05:04.929Z,101689.84
2023-01-29T09:07:32.277Z,101680.78
2023-01-29T09:09:59.677Z,101678.75
2023-01-29T09:12:27.060Z,101673.84
2023-01-29T09:14:54.381Z,101663.59
2023-01-29T09:17:21.696Z,101660.50
2023-01-29T09:19:50.497Z,101638.53
2023-01-29T09:22:17.867Z,101629.84
2023-01-29T09:24:45.236Z,101636.53
2023-01-29T09:27:12.569Z,101631.44
2023-01-29T09:29:39.940Z,101619.75
2023-01-29T09:32:07.470Z,101625.91
2023-01-29T09:34:35.077Z,101605.53
2023-01-29T09:37:03.716Z,101601.56
2023-01-29T09:39:30.949Z,101604.59
2023-01-29T09:42:08.121Z,101589.00
2023-01-29T09:44:52.481Z,101585.78
2023-01-29T09:47:21.181Z,101577.91
2023-01-29T09:49:52.612Z,101566.50
2023-01-29T09:52:25.803Z,101586.94
2023-01-29T09:55:00.181Z,101582.69
2023-01-29T09:57:34.500Z,101584.25
2023-01-29T10:00:01.909Z,101573.66
2023-01-29T10:02:48.291Z,101559.91
2023-01-29T10:05:27.526Z,101550.88
2023-01-29T10:08:26.572Z,101535.81
2023-01-29T10:11:04.916Z,101535.59
2023-01-29T10:13:44.250Z,101530.88
2023-01-29T10:16:26.694Z,101521.84
2023-01-29T10:19:19.740Z,101511.41
2023-01-29T10:22:06.436Z,101494.00
2023-01-29T10:24:38.483Z,101490.50
2023-01-29T10:27:14.183Z,101480.97
2023-01-29T10:29:43.560Z,101483.78
2023-01-29T10:32:15.490Z,101484.63
2023-01-29T10:34:48.105Z,101485.88
2023-01-29T10:37:22.154Z,101492.22
2023-01-29T10:39:51.100Z,101483.97
2023-01-29T10:42:31.513Z,101482.31
2023-01-29T10:45:18.599Z,101482.34
2023-01-29T10:48:03.932Z,101459.47
2023-01-29T10:50:50.873Z,101461.06
2023-01-29T10:53:41.015Z,101456.00
2023-01-29T10:56:24.784Z,101450.81
2023-01-29T10:58:55.194Z,101447.28
2023-01-29T11:01:22.856Z,101435.00
2023-01-29T11:03:57.682Z,101438.22
2023-01-29T11:06:29.652Z,101432.72
2023-01-29T11:09:04.236Z,101419.38
2023-01-29T11:11:38.494Z,101407.56
2023-01-29T11:14:10.241Z,101405.31
2023-01-29T11:16:42.249Z,101383.19
2023-01-29T11:19:10.545Z,101393.56
2023-01-29T11:21:51.680Z,101383.28
2023-01-29T11:24:19.340Z,101378.59
2023-01-29T11:26:49.794Z,101373.13
2023-01-29T11:29:38.317Z,101357.31
2023-01-29T11:32:10.699Z,101353.38
2023-01-29T11:34:56.481Z,101342.72
2023-01-29T11:37:31.141Z,101336.34
2023-01-29T11:39:58.441Z,101341.03
2023-01-29T11:42:30.857Z,101350.16
2023-01-29T11:44:58.113Z,101338.34
2023-01-29T11:47:28.730Z,101334.41
2023-01-29T11:49:57.762Z,101326.53
2023-01-29T11:52:27.566Z,101316.25
2023-01-29T11:54:59.194Z,101318.59
2023-01-29T11:57:32.297Z,101310.38
2023-01-29T12:00:03.714Z,101299.72
2023-01-29T12:02:38.701Z,101294.94
2023-01-29T12:05:14.790Z,101299.69
2023-01-29T12:07:44.193Z,101289.44
2023-01-29T12:10:30.541Z,101283.53
2023-01-29T12:13:06.587Z,101282.34
2023-01-29T12:15:34.034Z,101269.72
2023-01-29T12:18:12.718Z,101269.31
2023-01-29T12:20:44.942Z,101271.28
2023-01-29T12:23:23.785Z,101272.84
2023-01-29T12:25:58.907Z,101263.38
2023-01-29T12:28:41.156Z,101269.72
2023-01-29T12:31:34.946Z,101255.47
2023-01-29T12:34:10.724Z,101267.75
2023-01-29T12:36:44.106Z,101259.47
2023-01-29T12:39:16.423Z,101264.59
2023-01-29T12:41:47.934Z,101277.19
2023-01-29T12:44:20.815Z,101267.31
2023-01-29T12:46:53.059Z,101258.63
2023-01-29T12:49:24.720Z,101260.22
2023-01-29T12:51:58.036Z,101261.41
2023-01-29T12:54:32.995Z,101276.78
2023-01-29T12:57:07.124Z,101277.97
2023-01-29T12:59:41.665Z,101265.38
2023-01-29T13:02:22.811Z,101267.34
2023-01-29T13:04:57.789Z,101258.63
2023-01-29T13:07:30.357Z,101249.19
2023-01-29T13:10:05.000Z,101258.66
2023-01-29T13:12:34.602Z,101249.94
2023-01-29T13:15:15.168Z,101234.97
2023-01-29T13:17:47.440Z,101239.31
2023-01-29T13:20:21.079Z,101235.38
2023-01-29T13:22:50.268Z,101228.66
2023-01-29T13:25:19.843Z,101231.41
2023-01-29T13:27:48.573Z,101221.19
2023-01-29T13:30:28.669Z,101227.09
2023-01-29T13:32:58.174Z,101226.31
2023-01-29T13:35:25.672Z,101218.41
2023-01-29T13:37:54.900Z,101223.50
2023-01-29T13:40:25.433Z,101236.09
2023-01-29T13:42:54.654Z,101238.88
2023-01-29T13:45:24.866Z,101239.66
2023-01-29T13:47:54.363Z,101256.22
2023-01-29T13:50:29.885Z,101247.53
2023-01-29T13:52:59.668Z,101246.75
2023-01-29T13:55:31.176Z,101266.06
2023-01-29T13:57:59.337Z,101258.56
2023-01-29T14:00:56.901Z,101254.66
2023-01-29T14:04:08.096Z,101258.97
2023-01-29T14:06:40.047Z,101256.97
2023-01-29T14:09:54.811Z,101260.53
2023-01-29T14:12:44.419Z,101252.66
2023-01-29T14:15:36.119Z,101251.84
2023-01-29T14:18:16.134Z,101259.34
2023-01-29T14:21:01.305Z,101242.00
2023-01-29T14:23:47.420Z,101242.75
2023-01-29T14:26:25.878Z,101246.34
2023-01-29T14:29:01.344Z,101248.31
2023-01-29T14:31:39.281Z,101235.31
2023-01-29T14:34:14.331Z,101251.44
2023-01-29T14:36:46.795Z,101261.28
2023-01-29T14:39:24.649Z,101245.50
2023-01-29T14:41:52.908Z,101256.19
2023-01-29T14:45:05.896Z,101265.63
2023-01-29T14:47:53.228Z,101246.28
2023-01-29T14:50:55.885Z,101254.53
2023-01-29T14:53:32.751Z,101260.38
2023-01-29T14:56:03.079Z,101268.66
2023-01-29T14:58:38.221Z,101265.47
2023-01-29T15:01:13.329Z,101274.91
2023-01-29T15:03:44.679Z,101272.91
2023-01-29T15:06:18.936Z,101281.97
2023-01-29T15:08:55.048Z,101290.59
2023-01-29T15:11:32.151Z,101285.09
2023-01-29T15:14:08.573Z,101289.00
2023-01-29T15:16:44.947Z,101287.38
2023-01-29T15:19:19.733Z,101295.63
2023-01-29T15:22:06.501Z,101288.56
2023-01-29T15:24:35.432Z,101307.41
2023-01-29T15:27:03.423Z,101296.38
2023-01-29T15:29:30.994Z,101315.25
2023-01-29T15:31:58.534Z,101313.25
2023-01-29T15:34:26.251Z,101315.97
2023-01-29T15:36:53.653Z,101331.72
2023-01-29T15:39:23.190Z,101318.25
2023-01-29T15:42:10.549Z,101315.41
2023-01-29T15:44:45.131Z,101324.78
2023-01-29T15:47:14.685Z,101333.44
2023-01-29T15:49:42.339Z,101353.84
2023-01-29T15:52:17.811Z,101363.28
2023-01-29T15:54:45.813Z,101373.44
2023-01-29T15:57:24.406Z,101383.66
2023-01-29T15:59:56.377Z,101376.16
2023-01-29T16:02:41.502Z,101385.59
2023-01-29T16:05:14.045Z,101382.09
2023-01-29T16:07:42.285Z,101380.91
2023-01-29T16:10:16.331Z,101389.13
2023-01-29T16:12:45.757Z,101374.97
2023-01-29T16:15:23.029Z,101364.38
2023-01-29T16:17:50.408Z,101372.69
2023-01-29T16:20:31.615Z,101360.47
2023-01-29T16:23:00.043Z,101356.88
2023-01-29T16:25:29.959Z,101363.97
2023-01-29T16:27:58.860Z,101365.16
2023-01-29T16:30:27.431Z,101346.22
2023-01-29T16:33:02.429Z,101339.53
2023-01-29T16:35:30.076Z,101358.78
2023-01-29T16:38:02.369Z,101345.03
2023-01-29T16:40:32.628Z,101329.31
2023-01-29T16:43:45.373Z,101308.88
2023-01-29T16:46:26.450Z,101301.41
2023-01-29T16:48:54.368Z,101310.44
2023-01-29T16:51:25.029Z,101313.19
2023-01-29T16:53:57.736Z,101319.88
2023-01-29T16:56:26.695Z,101311.56
2023-01-29T16:58:55.925Z,101319.00
2023-01-29T17:01:25.761Z,101305.56
2023-01-29T17:03:59.365Z,101307.94
2023-01-29T17:06:27.541Z,101319.72
2023-01-29T17:08:55.218Z,101290.56
2023-01-29T17:11:32.769Z,101258.69
2023-01-29T17:14:01.618Z,101250.38
2023-01-29T17:16:31.202Z,101238.56
2023-01-29T17:18:59.055Z,101211.84
2023-01-29T17:21:26.794Z,101217.69
2023-01-29T17:23:54.195Z,101216.59
2023-01-29T17:26:22.943Z,101196.91
2023-01-29T17:28:51.393Z,101189.03
2023-01-29T17:31:22.796Z,101168.97
2023-01-29T17:33:50.183Z,101158.78
2023-01-29T17:36:18.168Z,101133.19
2023-01-29T17:38:45.547Z,101137.13
2023-01-29T17:41:22.380Z,101125.34
2023-01-29T17:43:49.605Z,101109.22
2023-01-29T17:46:20.210Z,101112.78
2023-01-29T17:48:49.077Z,101106.50
2023-01-29T17:51:17.895Z,101097.06
2023-01-29T17:53:46.990Z,101090.75
2023-01-29T17:56:16.490Z,101082.91
2023-01-29T17:58:44.121Z,101051.47
2023-01-29T18:01:11.354Z,101056.56
2023-01-29T18:03:38.751Z,101045.94
2023-01-29T18:06:08.699Z,101038.09
2023-01-29T18:08:38.101Z,101033.34
2023-01-29T18:11:05.748Z,101018.44
2023-01-29T18:13:33.033Z,101020.03
2023-01-29T18:16:00.592Z,101000.38
2023-01-29T18:18:27.974Z,101004.34
2023-01-29T18:20:55.190Z,100996.88
2023-01-29T18:23:23.861Z,100958.72
2023-01-29T18:25:51.130Z,100957.97
2023-01-29T18:28:18.651Z,100963.84
2023-01-29T18:30:46.662Z,100947.72
2023-01-29T18:33:14.518Z,100939.88
2023-01-29T18:35:43.530Z,100936.72
2023-01-29T18:38:10.837Z,100922.19
2023-01-29T18:40:39.509Z,100938.72
2023-01-29T18:43:06.851Z,100928.44
2023-01-29T18:45:34.159Z,100915.47
2023-01-29T18:48:01.590Z,100910.78
2023-01-29T18:50:28.785Z,100909.97
2023-01-29T18:52:56.601Z,100899.78
2023-01-29T18:55:24.028Z,100895.44
2023-01-29T18:58:26.702Z,100880.09
2023-01-29T19:00:41.384Z,100895.81
2023-01-29T19:03:08.638Z,100875.75
2023-01-29T19:05:35.929Z,100867.50
2023-01-29T19:08:03.163Z,100875.75
2023-01-29T19:10:30.504Z,100876.16
2023-01-29T19:12:59.064Z,100858.06
2023-01-29T19:15:26.569Z,100851.78
2023-01-29T19:17:54.302Z,100847.06
2023-01-29T19:20:21.706Z,100849.81
2023-01-29T19:22:49.075Z,100850.59
2023-01-29T19:25:17.287Z,100847.47
2023-01-29T19:27:45.264Z,100831.72
2023-01-29T19:30:14.418Z,100835.69
2023-01-29T19:32:41.752Z,100835.28
2023-01-29T19:35:09.130Z,100828.22
2023-01-29T19:37:36.444Z,100827.03
2023-01-29T19:40:04.516Z,100815.63
2023-01-29T19:42:31.685Z,100795.94
2023-01-29T19:44:59.041Z,100799.09
2023-01-29T19:47:27.652Z,100790.84
2023-01-29T19:49:54.988Z,100788.88
2023-01-29T19:52:22.344Z,100784.53
2023-01-29T19:54:49.637Z,100783.38
2023-01-29T19:57:16.945Z,100788.88
2023-01-29T19:59:45.906Z,100772.34
2023-01-29T20:02:13.241Z,100797.50
2023-01-29T20:04:41.865Z,100790.44
2023-01-29T20:07:09.120Z,100784.13
2023-01-29T20:09:36.466Z,100811.69
2023-01-29T20:12:04.023Z,100794.75
2023-01-29T20:14:31.315Z,100793.19
2023-01-29T20:16:58.474Z,100784.53
2023-01-29T20:19:25.771Z,100778.63
2023-01-29T20:21:54.410Z,100765.25
2023-01-29T20:24:21.883Z,100769.94
2023-01-29T20:26:49.224Z,100755.41
2023-01-29T20:29:16.500Z,100740.03
2023-01-29T20:31:43.718Z,100751.03
2023-01-29T20:34:11.049Z,100743.16
2023-01-29T20:36:38.335Z,100757.34
2023-01-29T20:39:07.060Z,100737.66
2023-01-29T20:41:34.516Z,100735.31
2023-01-29T20:44:01.982Z,100742.38
2023-01-29T20:46:29.293Z,100732.94
2023-01-29T20:48:56.559Z,100724.28
2023-01-29T20:51:24.065Z,100721.50
2023-01-29T20:53:51.544Z,100723.09
2023-01-29T20:56:32.044Z,100736.84
2023-01-29T20:59:04.092Z,100717.56
2023-01-29T21:01:31.341Z,100704.97
2023-01-29T21:04:00.234Z,100690.41
2023-01-29T21:06:27.623Z,100707.72
2023-01-29T21:08:55.175Z,100714.81
2023-01-29T21:11:24.076Z,100700.25
2023-01-29T21:13:51.633Z,100708.47
2023-01-29T21:16:19.089Z,100689.97
2023-01-29T21:18:46.673Z,100692.34
2023-01-29T21:21:14.006Z,100686.81
2023-01-29T21:23:41.335Z,100682.91
2023-01-29T21:26:08.768Z,100701.00
2023-01-29T21:28:37.559Z,100694.31
2023-01-29T21:31:06.054Z,100701.41
2023-01-29T21:33:33.437Z,100693.13
2023-01-29T21:36:01.020Z,100683.34
2023-01-29T21:38:28.504Z,100699.47
2023-01-29T21:40:59.381Z,100693.16
2023-01-29T21:43:26.922Z,100697.13
2023-01-29T21:46:00.559Z,100702.22
2023-01-29T21:48:27.888Z,100689.25
2023-01-29T21:50:55.128Z,100711.66
2023-01-29T21:53:22.355Z,100707.75
2023-01-29T21:55:49.899Z,100710.09
2023-01-29T21:58:17.196Z,100724.28
2023-01-29T22:00:44.842Z,100724.28
2023-01-29T22:03:13.590Z,100722.69
2023-01-29T22:05:40.926Z,100717.97
2023-01-29T22:08:08.184Z,100718.78
2023-01-29T22:10:35.614Z,100721.13
2023-01-29T22:13:03.032Z,100723.09
2023-01-29T22:15:30.299Z,100714.06
2023-01-29T22:17:57.582Z,100691.22
2023-01-29T22:20:26.265Z,100699.50
2023-01-29T22:22:53.558Z,100705.81
2023-01-29T22:25:20.840Z,100687.69
2023-01-29T22:27:48.162Z,100698.72
2023-01-29T22:30:16.140Z,100718.81
2023-01-29T22:32:43.717Z,100705.41
2023-01-29T22:35:10.943Z,100689.69
2023-01-29T22:37:39.625Z,100687.28
2023-01-29T22:40:08.318Z,100693.59
2023-01-29T22:42:35.634Z,100688.06
2023-01-29T22:45:02.991Z,100677.84
2023-01-29T22:47:32.395Z,100677.03
2023-01-29T22:49:59.608Z,100673.88
2023-01-29T22:52:27.014Z,100643.97
2023-01-29T22:54:55.757Z,100641.59
2023-01-29T22:57:23.079Z,100631.34
2023-01-29T22:59:50.340Z,100619.53
2023-01-29T23:02:17.684Z,100612.41
2023-01-29T23:04:44.899Z,100595.09
2023-01-29T23:07:12.275Z,100588.38
2023-01-29T23:09:39.546Z,100576.16
2023-01-29T23:12:08.351Z,100525.38
2023-01-29T23:14:36.575Z,100529.69
2023-01-29T23:17:03.937Z,100520.25
2023-01-29T23:19:31.189Z,100517.88
2023-01-29T23:21:58.551Z,100472.59
2023-01-29T23:24:25.833Z,100484.44
2023-01-29T23:26:53.153Z,100462.31
2023-01-29T23:29:21.801Z,100493.38
2023-01-29T23:31:49.108Z,100484.72
2023-01-29T23:34:16.481Z,100486.31
2023-01-29T23:36:43.794Z,100482.34
2023-01-29T23:39:11.111Z,100494.13
2023-01-29T23:41:38.400Z,100496.84
2023-01-29T23:44:05.748Z,100515.72
2023-01-29T23:46:34.731Z,100511.41
2023-01-29T23:49:01.985Z,100494.44
2023-01-29T23:51:29.274Z,100508.16
2023-01-29T23:53:56.571Z,100483.28
2023-01-29T23:56:23.926Z,100471.06
2023-01-29T23:58:53.416Z,100451.38
